createdAt,value
2023-02-14T00:01:31.226Z,103398.59
2023-02-14T00:04:32.765Z,103403.53
2023-02-14T00:07:36.123Z,103395.53
2023-02-14T00:10:37.450Z,103399.28
2023-02-14T00:13:40.332Z,103393.97
2023-02-14T00:16:41.539Z,103393.94
2023-02-14T00:19:44.450Z,103393.94
2023-02-14T00:22:46.408Z,103397.38
2023-02-14T00:25:48.915Z,103389.19
2023-02-14T00:28:51.436Z,103390.88
2023-02-14T00:31:53.367Z,103388.69
2023-02-14T00:34:56.252Z,103386.97
2023-02-14T00:37:58.156Z,103385.09
2023-02-14T00:41:01.161Z,103386.81
2023-02-14T00:44:02.799Z,103389.53
2023-02-14T00:47:05.586Z,103394.34
2023-02-14T00:50:08.773Z,103393.47
2023-02-14T00:53:10.740Z,103387.66
2023-02-14T00:56:13.561Z,103388.13
2023-02-14T00:59:15.047Z,103385.94
2023-02-14T01:02:17.590Z,103385.56
2023-02-14T01:05:20.365Z,103384.53
2023-02-14T01:08:22.457Z,103377.22
2023-02-14T01:11:26.112Z,103369.88
2023-02-14T01:14:28.794Z,103367.50
2023-02-14T01:17:30.108Z,103364.44
2023-02-14T01:20:32.731Z,103363.91
2023-02-14T01:23:34.764Z,103358.34
2023-02-14T01:26:37.408Z,103352.69
2023-02-14T01:29:39.949Z,103347.91
2023-02-14T01:32:41.875Z,103345.50
2023-02-14T01:35:44.423Z,103350.28
2023-02-14T01:38:46.516Z,103350.75
2023-02-14T01:41:49.716Z,103355.34
2023-02-14T01:44:58.393Z,103349.09
2023-02-14T01:48:00.117Z,103349.78
2023-02-14T01:51:02.680Z,103346.19
2023-02-14T01:54:08.097Z,103349.59
2023-02-14T01:57:14.413Z,103344.84
2023-02-14T02:00:36.042Z,103346.53
2023-02-14T02:03:41.338Z,103347.22
2023-02-14T02:06:48.855Z,103352.50
2023-02-14T02:09:54.882Z,103344.50
2023-02-14T02:13:00.886Z,103341.41
2023-02-14T02:16:22.316Z,103345.19
2023-02-14T02:19:51.548Z,103340.44
2023-02-14T02:23:13.307Z,103353.22
2023-02-14T02:27:00.293Z,103354.69
2023-02-14T02:30:35.815Z,103360.97
2023-02-14T02:34:11.643Z,103347.00
2023-02-14T02:37:31.768Z,103348.38
2023-02-14T02:40:47.462Z,103348.88
2023-02-14T02:43:54.974Z,103346.16
2023-02-14T02:47:07.640Z,103352.63
2023-02-14T02:50:38.261Z,103349.56
2023-02-14T02:53:45.729Z,103354.00
2023-02-14T02:56:54.046Z,103354.00
2023-02-14T02:59:57.147Z,103345.97
2023-02-14T03:03:18.758Z,103341.50
2023-02-14T03:06:20.109Z,103339.34
2023-02-14T03:09:55.181Z,103343.25
2023-02-14T03:13:36.541Z,103340.81
2023-02-14T03:17:03.102Z,103346.44
2023-02-14T03:20:14.392Z,103348.47
2023-02-14T03:23:21.392Z,103344.75
2023-02-14T03:30:01.355Z,103341.00
2023-02-14T03:33:09.973Z,103332.47
2023-02-14T03:36:17.562Z,103342.34
2023-02-14T03:39:25.111Z,103334.69
2023-02-14T03:45:59.742Z,103345.25
2023-02-14T03:49:06.364Z,103339.47
2023-02-14T03:52:10.897Z,103338.59
2023-02-14T03:55:16.330Z,103338.09
2023-02-14T03:58:23.274Z,103340.59
2023-02-14T04:01:27.932Z,103332.25
2023-02-14T04:04:36.290Z,103339.06
2023-02-14T04:07:46.020Z,103333.59
2023-02-14T04:10:47.576Z,103326.97
2023-02-14T04:13:50.777Z,103331.56
2023-02-14T04:17:11.713Z,103331.22
2023-02-14T04:20:13.195Z,103329.91
2023-02-14T04:23:15.672Z,103327.50
2023-02-14T04:26:17.022Z,103336.34
2023-02-14T04:29:20.736Z,103330.53
2023-02-14T04:32:22.488Z,103326.28
2023-02-14T04:35:25.036Z,103328.16
2023-02-14T04:38:27.663Z,103323.56
2023-02-14T04:41:30.264Z,103325.59
2023-02-14T04:44:34.462Z,103328.16
2023-02-14T04:47:35.704Z,103320.84
2023-02-14T04:50:38.273Z,103320.47
2023-02-14T04:53:40.596Z,103317.44
2023-02-14T04:56:42.028Z,103315.16
2023-02-14T04:59:45.398Z,103319.59
2023-02-14T05:02:46.679Z,103321.44
2023-02-14T05:05:49.252Z,103325.03
2023-02-14T05:08:51.959Z,103316.69
2023-02-14T05:11:53.228Z,103314.31
2023-02-14T05:14:58.120Z,103311.13
2023-02-14T05:18:02.028Z,103309.25
2023-02-14T05:21:04.997Z,103301.25
2023-02-14T05:24:07.760Z,103301.06
2023-02-14T05:27:10.918Z,103301.19
2023-02-14T05:30:15.565Z,103303.91
2023-02-14T05:33:16.906Z,103305.59
2023-02-14T05:36:19.471Z,103308.00
2023-02-14T05:39:22.171Z,103302.16
2023-02-14T05:42:23.458Z,103298.13
2023-02-14T05:45:26.675Z,103295.75
2023-02-14T05:48:27.928Z,103297.63
2023-02-14T05:51:30.571Z,103295.59
2023-02-14T05:54:33.091Z,103295.22
2023-02-14T05:57:34.672Z,103290.47
2023-02-14T06:00:40.725Z,103294.91
2023-02-14T06:03:42.402Z,103300.69
2023-02-14T06:10:09.007Z,103293.03
2023-02-14T06:13:11.692Z,103296.41
2023-02-14T06:16:13.638Z,103301.19
2023-02-14T06:19:16.194Z,103304.88
2023-02-14T06:22:17.469Z,103302.34
2023-02-14T06:25:20.770Z,103302.03
2023-02-14T06:28:22.482Z,103307.31
2023-02-14T06:31:26.369Z,103299.31
2023-02-14T06:34:27.863Z,103297.09
2023-02-14T06:37:30.376Z,103301.38
2023-02-14T06:40:31.637Z,103293.06
2023-02-14T06:43:34.231Z,103302.25
2023-02-14T06:46:36.239Z,103296.81
2023-02-14T06:53:00.998Z,103306.03
2023-02-14T06:56:02.407Z,103304.66
2023-02-14T06:59:04.931Z,103304.13
2023-02-14T07:02:10.220Z,103300.38
2023-02-14T07:05:11.576Z,103293.09
2023-02-14T07:08:14.131Z,103304.88
2023-02-14T07:11:15.422Z,103300.44
2023-02-14T07:14:17.962Z,103298.56
2023-02-14T07:17:21.242Z,103303.50
2023-02-14T07:20:22.763Z,103304.38
2023-02-14T07:23:25.309Z,103304.72
2023-02-14T07:26:28.399Z,103299.09
2023-02-14T07:29:30.919Z,103307.47
2023-02-14T07:32:34.976Z,103301.16
2023-02-14T07:35:36.260Z,103296.56
2023-02-14T07:38:38.871Z,103291.97
2023-02-14T07:41:40.189Z,103299.97
2023-02-14T07:44:42.985Z,103296.44
2023-02-14T07:47:46.245Z,103296.94
2023-02-14T07:50:49.137Z,103295.41
2023-02-14T07:53:51.691Z,103287.91
2023-02-14T07:56:53.062Z,103287.25
2023-02-14T07:59:58.247Z,103290.66
2023-02-14T08:03:00.232Z,103286.03
2023-02-14T08:06:02.824Z,103291.00
2023-02-14T08:09:05.414Z,103298.34
2023-02-14T08:12:24.680Z,103302.78
2023-02-14T08:15:46.353Z,103310.63
2023-02-14T08:18:48.360Z,103311.47
2023-02-14T08:25:11.863Z,103305.22
2023-02-14T08:28:14.140Z,103301.97
2023-02-14T08:31:34.504Z,103319.00
2023-02-14T08:34:38.763Z,103316.63
2023-02-14T08:37:39.996Z,103318.69
2023-02-14T08:40:42.553Z,103322.59
2023-02-14T08:43:45.250Z,103331.16
2023-02-14T08:46:47.921Z,103323.63
2023-02-14T08:49:51.137Z,103337.44
2023-02-14T08:52:52.446Z,103332.66
2023-02-14T08:55:55.106Z,103328.41
2023-02-14T08:58:56.420Z,103341.72
2023-02-14T09:05:22.549Z,103340.50
2023-02-14T09:08:25.221Z,103331.81
2023-02-14T09:11:26.880Z,103332.97
2023-02-14T09:14:31.874Z,103330.59
2023-02-14T09:17:33.548Z,103335.72
2023-02-14T09:20:37.125Z,103331.28
2023-02-14T09:23:38.545Z,103325.81
2023-02-14T09:26:42.661Z,103331.09
2023-02-14T09:29:43.976Z,103322.19
2023-02-14T09:32:46.524Z,103337.72
2023-02-14T09:35:48.480Z,103333.28
2023-02-14T09:38:51.047Z,103336.69
2023-02-14T09:42:06.289Z,103333.31
2023-02-14T09:45:13.385Z,103331.91
2023-02-14T09:48:25.690Z,103332.41
2023-02-14T09:51:31.989Z,103333.13
2023-02-14T09:54:34.887Z,103335.84
2023-02-14T09:57:45.603Z,103335.63
2023-02-14T10:00:53.142Z,103340.44
2023-02-14T10:04:12.733Z,103340.63
2023-02-14T10:07:25.046Z,103343.16
2023-02-14T10:10:32.485Z,103345.53
2023-02-14T10:13:41.288Z,103347.53
2023-02-14T10:16:45.993Z,103336.97
2023-02-14T10:19:53.220Z,103349.31
2023-02-14T10:23:01.758Z,103344.50
2023-02-14T10:26:08.661Z,103336.31
2023-02-14T10:29:15.611Z,103326.50
2023-02-14T10:32:24.300Z,103330.78
2023-02-14T10:35:36.279Z,103320.53
2023-02-14T10:38:45.976Z,103315.41
2023-02-14T10:41:53.766Z,103321.03
2023-02-14T10:45:06.663Z,103317.75
2023-02-14T10:48:18.935Z,103314.25
2023-02-14T10:51:33.772Z,103322.53
2023-02-14T10:54:38.406Z,103316.97
2023-02-14T10:57:45.379Z,103311.06
2023-02-14T11:00:57.481Z,103310.19
2023-02-14T11:04:06.982Z,103310.03
2023-02-14T11:07:13.872Z,103302.00
2023-02-14T11:10:17.555Z,103308.00
2023-02-14T11:13:35.812Z,103301.22
2023-02-14T11:16:37.483Z,103297.72
2023-02-14T11:19:40.079Z,103295.47
2023-02-14T11:22:42.618Z,103292.38
2023-02-14T11:25:50.609Z,103293.34
2023-02-14T11:28:57.192Z,103301.56
2023-02-14T11:32:07.542Z,103295.13
2023-02-14T11:35:19.298Z,103300.66
2023-02-14T11:38:29.683Z,103295.66
2023-02-14T11:45:28.546Z,103289.38
2023-02-14T11:48:38.347Z,103285.63
2023-02-14T11:51:45.809Z,103278.84
2023-02-14T11:54:49.977Z,103276.56
2023-02-14T11:57:52.770Z,103288.16
2023-02-14T12:00:55.516Z,103280.66
2023-02-14T12:03:59.365Z,103274.66
2023-02-14T12:07:17.312Z,103263.72
2023-02-14T12:13:53.325Z,103264.84
2023-02-14T12:17:02.293Z,103261.00
2023-02-14T12:20:09.462Z,103248.44
2023-02-14T12:23:18.904Z,103242.53
2023-02-14T12:26:29.613Z,103243.44
2023-02-14T12:29:36.876Z,103237.72
2023-02-14T12:32:47.569Z,103232.44
2023-02-14T12:35:58.416Z,103226.34
2023-02-14T12:39:10.261Z,103216.06
2023-02-14T12:42:33.270Z,103211.91
2023-02-14T12:45:54.776Z,103213.31
2023-02-14T12:49:32.575Z,103210.88
2023-02-14T12:52:54.659Z,103202.75
2023-02-14T12:56:05.794Z,103199.44
2023-02-14T12:59:20.496Z,103198.94
2023-02-14T13:02:49.309Z,103187.53
2023-02-14T13:09:33.657Z,103189.22
2023-02-14T13:12:39.848Z,103183.97
2023-02-14T13:15:53.129Z,103191.72
2023-02-14T13:19:01.796Z,103184.53
2023-02-14T13:22:06.532Z,103188.66
2023-02-14T13:25:22.139Z,103189.69
2023-02-14T13:28:26.399Z,103183.81
2023-02-14T13:31:29.617Z,103188.13
2023-02-14T13:34:34.616Z,103180.59
2023-02-14T13:37:38.589Z,103178.28
2023-02-14T13:40:40.146Z,103184.38
2023-02-14T13:43:54.511Z,103168.44
2023-02-14T13:46:55.899Z,103166.06
2023-02-14T13:50:01.708Z,103176.44
2023-02-14T13:53:03.059Z,103168.78
2023-02-14T13:56:27.157Z,103171.78
2023-02-14T13:59:32.575Z,103172.69
2023-02-14T14:02:43.398Z,103173.38
2023-02-14T14:05:48.558Z,103171.09
2023-02-14T14:08:55.450Z,103163.16
2023-02-14T14:11:58.250Z,103165.03
2023-02-14T14:15:15.554Z,103167.41
2023-02-14T14:18:41.814Z,103158.91
2023-02-14T14:21:59.873Z,103159.31
2023-02-14T14:25:05.812Z,103159.69
2023-02-14T14:28:10.561Z,103153.28
2023-02-14T14:31:14.689Z,103156.06
2023-02-14T14:34:18.323Z,103155.31
2023-02-14T14:37:22.801Z,103159.13
2023-02-14T14:40:27.898Z,103153.66
2023-02-14T14:43:32.204Z,103151.47
2023-02-14T14:46:35.494Z,103144.69
2023-02-14T14:49:36.773Z,103154.03
2023-02-14T14:52:43.047Z,103148.03
2023-02-14T14:55:52.379Z,103142.31
2023-02-14T14:58:54.360Z,103138.91
2023-02-14T15:01:57.732Z,103136.78
2023-02-14T15:05:12.973Z,103133.75
2023-02-14T15:08:17.460Z,103139.03
2023-02-14T15:11:43.102Z,103129.13
2023-02-14T15:14:50.562Z,103133.75
2023-02-14T15:21:15.704Z,103121.94
2023-02-14T15:24:19.477Z,103120.09
2023-02-14T15:27:24.432Z,103125.88
2023-02-14T15:30:33.361Z,103117.31
2023-02-14T15:33:37.500Z,103111.38
2023-02-14T15:36:45.818Z,103114.47
2023-02-14T15:39:51.447Z,103114.06
2023-02-14T15:42:55.864Z,103103.00
2023-02-14T15:46:03.048Z,103107.47
2023-02-14T15:49:11.089Z,103106.34
2023-02-14T15:52:14.003Z,103110.91
2023-02-14T15:55:19.712Z,103100.00
2023-02-14T15:58:24.686Z,103090.81
2023-02-14T16:01:28.092Z,103099.88
2023-02-14T16:04:32.377Z,103091.03
2023-02-14T16:07:35.141Z,103088.59
2023-02-14T16:10:39.071Z,103076.19
2023-02-14T16:13:42.626Z,103079.47
2023-02-14T16:16:59.274Z,103088.13
2023-02-14T16:20:21.654Z,103077.56
2023-02-14T16:23:25.798Z,103073.66
2023-02-14T16:26:28.498Z,103078.50
2023-02-14T16:29:30.000Z,103077.75
2023-02-14T16:35:53.777Z,103067.00
2023-02-14T16:38:57.281Z,103072.97
2023-02-14T16:41:58.580Z,103075.19
2023-02-14T16:45:01.230Z,103073.41
2023-02-14T16:48:03.728Z,103079.38
2023-02-14T16:51:05.819Z,103076.47
2023-02-14T16:54:13.362Z,103078.69
2023-02-14T16:57:20.355Z,103081.78
2023-02-14T17:00:22.452Z,103084.16
2023-02-14T17:03:25.021Z,103086.03
2023-02-14T17:06:29.755Z,103081.31
2023-02-14T17:09:39.198Z,103080.63
2023-02-14T17:12:43.404Z,103083.50
2023-02-14T17:15:46.045Z,103078.41
2023-02-14T17:18:50.738Z,103080.78
2023-02-14T17:21:52.846Z,103074.47
2023-02-14T17:24:57.062Z,103071.06
2023-02-14T17:28:00.248Z,103081.47
2023-02-14T17:34:24.849Z,103072.63
2023-02-14T17:37:26.854Z,103081.63
2023-02-14T17:40:29.795Z,103078.09
2023-02-14T17:43:31.191Z,103076.56
2023-02-14T17:46:33.951Z,103075.22
2023-02-14T17:49:36.516Z,103075.38
2023-02-14T17:52:38.677Z,103066.53
2023-02-14T17:55:41.445Z,103067.19
2023-02-14T17:58:46.317Z,103066.16
2023-02-14T18:01:49.421Z,103059.38
2023-02-14T18:04:50.771Z,103056.28
2023-02-14T18:07:53.947Z,103059.13
2023-02-14T18:10:55.380Z,103053.91
2023-02-14T18:14:00.115Z,103053.75
2023-02-14T18:17:01.551Z,103045.72
2023-02-14T18:20:05.791Z,103038.75
2023-02-14T18:23:09.881Z,103036.03
2023-02-14T18:26:13.354Z,103041.97
2023-02-14T18:29:15.923Z,103040.28
2023-02-14T18:32:17.201Z,103025.13
2023-02-14T18:35:19.725Z,103035.00
2023-02-14T18:38:23.098Z,103030.88
2023-02-14T18:41:26.414Z,103026.00
2023-02-14T18:44:28.213Z,103016.09
2023-02-14T18:47:30.742Z,103016.81
2023-02-14T18:50:34.787Z,103012.88
2023-02-14T18:53:37.372Z,103002.31
2023-02-14T18:56:40.445Z,103009.44
2023-02-14T18:59:42.347Z,103003.34
2023-02-14T19:02:44.859Z,102998.25
2023-02-14T19:05:47.483Z,102998.25
2023-02-14T19:08:51.555Z,102992.94
2023-02-14T19:11:52.850Z,102989.38
2023-02-14T19:18:16.097Z,102988.19
2023-02-14T19:21:20.674Z,102982.56
2023-02-14T19:24:24.803Z,103002.16
2023-02-14T19:27:27.288Z,102996.56
2023-02-14T19:30:30.308Z,102993.16
2023-02-14T19:33:31.664Z,102998.63
2023-02-14T19:36:36.762Z,102993.47
2023-02-14T19:39:38.685Z,102994.50
2023-02-14T19:42:41.207Z,102988.25
2023-02-14T19:45:43.798Z,102996.91
2023-02-14T19:48:45.195Z,102984.31
2023-02-14T19:51:48.463Z,102986.19
2023-02-14T19:54:50.423Z,102977.53
2023-02-14T19:57:52.941Z,102975.81
2023-02-14T20:00:59.056Z,102980.06
2023-02-14T20:04:00.886Z,102974.47
2023-02-14T20:07:03.419Z,102978.22
2023-02-14T20:10:06.944Z,102969.69
2023-02-14T20:13:10.183Z,102964.91
2023-02-14T20:16:12.717Z,102961.34
2023-02-14T20:19:16.087Z,102964.94
2023-02-14T20:22:19.001Z,102968.16
2023-02-14T20:25:20.959Z,102959.13
2023-02-14T20:28:23.510Z,102961.53
2023-02-14T20:31:26.302Z,102962.75
2023-02-14T20:34:27.915Z,102957.78
2023-02-14T20:37:30.496Z,102960.50
2023-02-14T20:40:32.665Z,102953.72
2023-02-14T20:43:35.450Z,102945.69
2023-02-14T20:46:38.064Z,102940.72
2023-02-14T20:49:43.873Z,102950.44
2023-02-14T20:52:46.450Z,102946.81
2023-02-14T20:55:49.592Z,102944.78
2023-02-14T20:58:52.211Z,102933.41
2023-02-14T21:01:54.346Z,102941.38
2023-02-14T21:05:00.623Z,102939.84
2023-02-14T21:08:03.195Z,102940.81
2023-02-14T21:11:06.395Z,102937.75
2023-02-14T21:14:09.165Z,102936.91
2023-02-14T21:17:10.441Z,102928.03
2023-02-14T21:20:14.035Z,102919.53
2023-02-14T21:23:15.325Z,102924.63
2023-02-14T21:26:19.162Z,102913.03
2023-02-14T21:29:21.905Z,102926.63
2023-02-14T21:32:23.245Z,102911.50
2023-02-14T21:38:45.765Z,102912.81
2023-02-14T21:45:30.232Z,102906.72
2023-02-14T21:48:50.433Z,102899.69
2023-02-14T21:51:53.286Z,102902.94
2023-02-14T21:54:54.539Z,102899.19
2023-02-14T21:57:57.743Z,102902.25
2023-02-14T22:01:00.762Z,102898.66
2023-02-14T22:04:06.937Z,102889.16
2023-02-14T22:07:09.527Z,102900.03
2023-02-14T22:10:13.176Z,102897.31
2023-02-14T22:13:16.358Z,102903.75
2023-02-14T22:16:20.621Z,102902.25
2023-02-14T22:19:23.367Z,102906.66
2023-02-14T22:22:26.116Z,102890.69
2023-02-14T22:25:27.454Z,102889.00
2023-02-14T22:28:30.700Z,102878.75
2023-02-14T22:31:34.029Z,102874.50
2023-02-14T22:34:36.913Z,102870.75
2023-02-14T22:37:39.485Z,102872.91
2023-02-14T22:40:42.555Z,102877.44
2023-02-14T22:43:46.320Z,102871.31
2023-02-14T22:46:47.696Z,102869.78
2023-02-14T22:49:50.892Z,102862.59
2023-02-14T22:52:53.505Z,102842.69
2023-02-14T22:55:54.785Z,102852.50
2023-02-14T22:59:00.525Z,102854.47
2023-02-14T23:02:01.961Z,102853.94
2023-02-14T23:08:25.357Z,102854.81
2023-02-14T23:11:30.154Z,102851.94
2023-02-14T23:14:50.679Z,102846.47
2023-02-14T23:21:51.657Z,102858.41
2023-02-14T23:24:54.582Z,102846.47
2023-02-14T23:27:57.273Z,102854.22
2023-02-14T23:31:00.802Z,102856.25
2023-02-14T23:34:03.577Z,102850.31
2023-02-14T23:37:05.740Z,102848.03
2023-02-14T23:40:10.460Z,102846.66
2023-02-14T23:43:11.904Z,102849.97
2023-02-14T23:46:15.239Z,102844.31
2023-02-14T23:49:17.350Z,102836.34
2023-02-14T23:52:19.892Z,102843.94
2023-02-14T23:55:22.604Z,102840.50
2023-02-14T23:58:25.290Z,102845.41
